Terminal Aerodrome Forecast
Issued by NWS

Home | Current Version | Previous Version | Text Only | Print | Product List | Glossary On
Versions: 1 2 3 4 5 6 7 8 9 10 11 12 13 14 15 16 17 18
790
FTUS44 KMAF 041130
TAFCNM
TAF
KCNM 041130Z 0412/0512 32006KT P6SM SCT030 OVC050
      TEMPO 0412/0416 33008KT 4SM BR BKN020
     FM041800 35011KT P6SM SCT050 OVC100
     FM050300 28006KT P6SM BKN150=

USA.gov is the U.S. government's official web portal to all federal, state and local government web resources and services.